createdAt,value
2023-02-25T00:02:04.731Z,99.79
2023-02-25T00:04:31.856Z,99.18
2023-02-25T00:06:58.601Z,99.25
2023-02-25T00:09:25.144Z,99.33
2023-02-25T00:11:51.778Z,99.25
2023-02-25T00:14:18.417Z,99.51
2023-02-25T00:16:45.141Z,99.86
2023-02-25T00:19:13.483Z,100.00
2023-02-25T00:21:40.037Z,99.60
2023-02-25T00:24:16.063Z,99.26
2023-02-25T00:26:43.586Z,99.72
2023-02-25T00:29:10.204Z,99.39
2023-02-25T00:31:36.806Z,99.27
2023-02-25T00:34:03.516Z,99.50
2023-02-25T00:36:30.052Z,99.35
2023-02-25T00:38:57.698Z,99.37
2023-02-25T00:41:29.027Z,100.00
2023-02-25T00:44:00.584Z,99.43
2023-02-25T00:46:28.695Z,99.89
2023-02-25T00:48:55.635Z,99.85
2023-02-25T00:51:24.733Z,99.25
2023-02-25T00:53:52.961Z,99.87
2023-02-25T00:56:20.504Z,100.00
2023-02-25T00:58:48.966Z,100.00
2023-02-25T01:01:27.678Z,100.00
2023-02-25T01:03:57.407Z,100.00
2023-02-25T01:06:25.650Z,100.00
2023-02-25T01:08:52.444Z,100.00
2023-02-25T01:11:27.066Z,100.00
2023-02-25T01:13:54.326Z,100.00
2023-02-25T01:16:23.835Z,100.00
2023-02-25T01:18:55.680Z,100.00
2023-02-25T01:21:25.944Z,100.00
2023-02-25T01:24:01.164Z,100.00
2023-02-25T01:26:29.596Z,100.00
2023-02-25T01:28:56.558Z,100.00
2023-02-25T01:31:29.644Z,100.00
2023-02-25T01:34:01.321Z,100.00
2023-02-25T01:36:28.941Z,100.00
2023-02-25T01:38:56.844Z,100.00
2023-02-25T01:41:24.703Z,100.00
2023-02-25T01:44:06.429Z,100.00
2023-02-25T01:46:33.206Z,100.00
2023-02-25T01:49:00.836Z,100.00
2023-02-25T01:51:28.402Z,100.00
2023-02-25T01:53:57.412Z,100.00
2023-02-25T01:56:26.051Z,100.00
2023-02-25T01:58:53.454Z,100.00
2023-02-25T02:01:22.291Z,100.00
2023-02-25T02:03:50.092Z,100.00
2023-02-25T02:06:21.867Z,100.00
2023-02-25T02:08:49.784Z,100.00
2023-02-25T02:11:17.134Z,100.00
2023-02-25T02:13:47.019Z,100.00
2023-02-25T02:16:31.704Z,100.00
2023-02-25T02:19:10.034Z,100.00
2023-02-25T02:22:00.746Z,100.00
2023-02-25T02:25:01.830Z,100.00
2023-02-25T02:27:34.317Z,100.00
2023-02-25T02:30:18.914Z,100.00
2023-02-25T02:32:58.874Z,100.00
2023-02-25T02:35:51.625Z,100.00
2023-02-25T02:38:18.125Z,100.00
2023-02-25T02:40:57.888Z,100.00
2023-02-25T02:43:33.671Z,100.00
2023-02-25T02:46:22.709Z,100.00
2023-02-25T02:49:27.119Z,100.00
2023-02-25T02:51:58.852Z,100.00
2023-02-25T02:54:29.984Z,100.00
2023-02-25T02:56:58.125Z,100.00
2023-02-25T02:59:34.871Z,100.00
2023-02-25T03:02:06.633Z,100.00
2023-02-25T03:04:36.508Z,100.00
2023-02-25T03:07:08.173Z,100.00
2023-02-25T03:09:46.815Z,100.00
2023-02-25T03:12:13.466Z,100.00
2023-02-25T03:14:40.208Z,100.00
2023-02-25T03:17:10.491Z,100.00
2023-02-25T03:19:46.082Z,100.00
2023-02-25T03:22:18.488Z,100.00
2023-02-25T03:24:50.428Z,100.00
2023-02-25T03:27:39.169Z,100.00
2023-02-25T03:30:14.869Z,100.00
2023-02-25T03:32:44.552Z,100.00
2023-02-25T03:35:12.355Z,100.00
2023-02-25T03:37:39.973Z,100.00
2023-02-25T03:40:12.287Z,100.00
2023-02-25T03:42:42.904Z,100.00
2023-02-25T03:45:10.996Z,100.00
2023-02-25T03:47:38.395Z,100.00
2023-02-25T03:50:35.595Z,100.00
2023-02-25T03:53:02.218Z,100.00
2023-02-25T03:55:29.388Z,100.00
2023-02-25T03:57:56.692Z,100.00
2023-02-25T04:00:26.367Z,100.00
2023-02-25T04:02:53.083Z,100.00
2023-02-25T04:05:21.730Z,100.00
2023-02-25T04:07:48.490Z,100.00
2023-02-25T04:10:16.375Z,100.00
2023-02-25T04:12:43.169Z,100.00
2023-02-25T04:15:10.426Z,100.00
2023-02-25T04:17:37.209Z,100.00
2023-02-25T04:20:05.509Z,100.00
2023-02-25T04:22:33.388Z,100.00
2023-02-25T04:25:00.433Z,100.00
2023-02-25T04:27:27.373Z,100.00
2023-02-25T04:29:54.081Z,100.00
2023-02-25T04:32:20.896Z,100.00
2023-02-25T04:34:47.556Z,100.00
2023-02-25T04:37:14.353Z,100.00
2023-02-25T04:39:41.531Z,100.00
2023-02-25T04:42:08.200Z,100.00
2023-02-25T04:44:35.244Z,100.00
2023-02-25T04:47:01.965Z,100.00
2023-02-25T04:49:28.578Z,100.00
2023-02-25T04:51:55.493Z,100.00
2023-02-25T04:54:22.218Z,100.00
2023-02-25T04:56:49.019Z,100.00
2023-02-25T04:59:16.184Z,100.00
2023-02-25T05:01:43.173Z,100.00
2023-02-25T05:04:09.966Z,100.00
2023-02-25T05:06:36.763Z,100.00
2023-02-25T05:09:04.001Z,100.00
2023-02-25T05:11:30.689Z,100.00
2023-02-25T05:13:57.651Z,100.00
2023-02-25T05:16:25.399Z,100.00
2023-02-25T05:18:52.479Z,100.00
2023-02-25T05:21:22.236Z,100.00
2023-02-25T05:23:50.474Z,100.00
2023-02-25T05:26:21.884Z,100.00
2023-02-25T05:28:52.846Z,100.00
2023-02-25T05:31:20.034Z,100.00
2023-02-25T05:33:47.714Z,100.00
2023-02-25T05:36:15.837Z,100.00
2023-02-25T05:38:42.623Z,100.00
2023-02-25T05:41:10.136Z,100.00
2023-02-25T05:43:38.410Z,100.00
2023-02-25T05:46:09.144Z,100.00
2023-02-25T05:48:35.739Z,100.00
2023-02-25T05:51:08.207Z,100.00
2023-02-25T05:53:35.166Z,100.00
2023-02-25T05:56:06.506Z,100.00
2023-02-25T05:58:34.707Z,100.00
2023-02-25T06:01:13.518Z,100.00
2023-02-25T06:03:41.721Z,100.00
2023-02-25T06:06:10.275Z,100.00
2023-02-25T06:08:36.852Z,100.00
2023-02-25T06:11:06.049Z,100.00
2023-02-25T06:13:33.190Z,100.00
2023-02-25T06:16:03.385Z,100.00
2023-02-25T06:18:29.979Z,100.00
2023-02-25T06:21:02.813Z,100.00
2023-02-25T06:23:29.407Z,100.00
2023-02-25T06:25:58.513Z,100.00
2023-02-25T06:28:25.040Z,100.00
2023-02-25T06:30:51.766Z,100.00
2023-02-25T06:33:18.452Z,100.00
2023-02-25T06:35:45.068Z,100.00
2023-02-25T06:38:11.600Z,100.00
2023-02-25T06:40:38.500Z,100.00
2023-02-25T06:43:05.087Z,100.00
2023-02-25T06:45:31.672Z,100.00
2023-02-25T06:47:58.732Z,100.00
2023-02-25T06:50:25.304Z,100.00
2023-02-25T06:52:51.799Z,100.00
2023-02-25T06:55:18.383Z,100.00
2023-02-25T06:57:44.927Z,100.00
2023-02-25T07:00:12.043Z,100.00
2023-02-25T07:02:38.568Z,100.00
2023-02-25T07:05:05.561Z,100.00
2023-02-25T07:07:32.380Z,100.00
2023-02-25T07:09:58.883Z,100.00
2023-02-25T07:12:25.408Z,100.00
2023-02-25T07:14:51.917Z,100.00
2023-02-25T07:17:18.511Z,100.00
2023-02-25T07:19:45.351Z,100.00
2023-02-25T08:55:43.862Z,100.00
2023-02-25T08:58:10.328Z,100.00
2023-02-25T09:00:36.851Z,100.00
2023-02-25T09:03:03.806Z,100.00
2023-02-25T09:05:30.369Z,100.00
2023-02-25T09:07:59.020Z,100.00
2023-02-25T09:10:25.714Z,100.00
2023-02-25T09:12:53.038Z,100.00
2023-02-25T09:15:21.733Z,100.00
2023-02-25T09:17:48.300Z,100.00
2023-02-25T09:20:17.994Z,100.00
2023-02-25T09:22:44.594Z,100.00
2023-02-25T09:25:11.185Z,100.00
2023-02-25T09:27:37.882Z,100.00
2023-02-25T09:30:04.714Z,100.00
2023-02-25T09:32:31.488Z,100.00
2023-02-25T09:35:00.122Z,100.00
2023-02-25T09:37:27.796Z,100.00
2023-02-25T09:39:54.908Z,100.00
2023-02-25T09:42:24.102Z,100.00
2023-02-25T09:44:57.569Z,100.00
2023-02-25T09:47:53.182Z,100.00
2023-02-25T09:50:23.753Z,100.00
2023-02-25T09:53:22.688Z,100.00
2023-02-25T09:55:51.949Z,100.00
2023-02-25T09:58:49.953Z,100.00
2023-02-25T10:01:24.912Z,100.00
2023-02-25T10:04:18.783Z,100.00
2023-02-25T10:06:50.538Z,100.00
2023-02-25T10:09:42.825Z,100.00
2023-02-25T10:12:30.926Z,100.00
2023-02-25T10:15:21.104Z,99.74
2023-02-25T10:18:04.698Z,99.80
2023-02-25T10:20:53.256Z,99.67
2023-02-25T10:23:38.542Z,100.00
2023-02-25T10:26:21.185Z,100.00
2023-02-25T10:28:53.142Z,100.00
2023-02-25T10:31:21.342Z,100.00
2023-02-25T10:33:50.595Z,100.00
2023-02-25T10:36:19.287Z,100.00
2023-02-25T10:38:48.035Z,100.00
2023-02-25T10:41:14.895Z,100.00
2023-02-25T10:43:42.252Z,100.00
2023-02-25T10:46:19.182Z,100.00
2023-02-25T10:48:55.759Z,100.00
2023-02-25T10:51:22.762Z,100.00
2023-02-25T10:53:58.662Z,100.00
2023-02-25T10:56:27.759Z,100.00
2023-02-25T10:59:07.632Z,100.00
2023-02-25T11:01:42.260Z,100.00
2023-02-25T11:04:14.755Z,100.00
2023-02-25T11:06:43.544Z,100.00
2023-02-25T11:09:19.387Z,100.00
2023-02-25T11:11:57.159Z,100.00
2023-02-25T11:14:35.586Z,100.00
2023-02-25T11:17:17.259Z,100.00
2023-02-25T11:19:58.923Z,100.00
2023-02-25T11:22:38.054Z,100.00
2023-02-25T11:25:08.168Z,100.00
2023-02-25T11:27:40.221Z,100.00
2023-02-25T11:30:14.699Z,100.00
2023-02-25T11:32:53.900Z,100.00
2023-02-25T11:35:28.788Z,100.00
2023-02-25T11:37:59.877Z,100.00
2023-02-25T11:40:36.234Z,100.00
2023-02-25T11:43:05.522Z,100.00
2023-02-25T11:45:38.606Z,100.00
2023-02-25T11:48:14.903Z,100.00
2023-02-25T11:51:09.788Z,100.00
2023-02-25T11:54:08.479Z,100.00
2023-02-25T11:56:37.982Z,100.00
2023-02-25T11:59:12.796Z,100.00
2023-02-25T12:01:50.996Z,100.00
2023-02-25T12:04:54.868Z,100.00
2023-02-25T12:08:12.857Z,100.00
2023-02-25T12:11:01.600Z,100.00
2023-02-25T12:13:50.650Z,100.00
2023-02-25T12:16:45.533Z,100.00
2023-02-25T12:19:39.551Z,100.00
2023-02-25T12:22:27.532Z,100.00
2023-02-25T12:25:10.551Z,100.00
2023-02-25T12:28:01.645Z,100.00
2023-02-25T12:30:36.619Z,100.00
2023-02-25T12:33:32.990Z,100.00
2023-02-25T12:36:34.863Z,100.00
2023-02-25T12:39:14.268Z,100.00
2023-02-25T12:42:09.701Z,100.00
2023-02-25T12:44:42.300Z,100.00
2023-02-25T12:47:44.080Z,100.00
2023-02-25T12:50:31.175Z,100.00
2023-02-25T12:53:06.470Z,100.00
2023-02-25T12:55:54.526Z,100.00
2023-02-25T12:58:40.103Z,100.00
2023-02-25T13:01:39.145Z,100.00
2023-02-25T13:04:24.731Z,100.00
2023-02-25T13:07:28.768Z,100.00
2023-02-25T13:10:14.099Z,100.00
2023-02-25T13:13:06.161Z,100.00
2023-02-25T13:15:53.983Z,100.00
2023-02-25T13:18:48.617Z,100.00
2023-02-25T13:21:29.675Z,100.00
2023-02-25T13:24:20.710Z,100.00
2023-02-25T13:26:53.400Z,100.00
2023-02-25T13:29:57.814Z,100.00
2023-02-25T13:32:56.686Z,100.00
2023-02-25T13:35:44.392Z,100.00
2023-02-25T13:39:06.742Z,100.00
2023-02-25T13:41:35.702Z,100.00
2023-02-25T13:44:52.619Z,100.00
2023-02-25T13:47:46.764Z,100.00
2023-02-25T13:50:34.987Z,100.00
2023-02-25T13:53:36.716Z,100.00
2023-02-25T13:56:23.652Z,100.00
2023-02-25T13:59:14.810Z,100.00
2023-02-25T14:01:49.578Z,100.00
2023-02-25T14:04:49.729Z,100.00
2023-02-25T14:07:51.675Z,100.00
2023-02-25T14:10:33.070Z,100.00
2023-02-25T14:13:39.823Z,100.00
2023-02-25T14:16:12.002Z,100.00
2023-02-25T14:18:44.641Z,100.00
2023-02-25T14:21:38.015Z,100.00
2023-02-25T14:24:10.628Z,100.00
2023-02-25T14:27:04.552Z,100.00
2023-02-25T14:30:03.222Z,100.00
2023-02-25T14:32:48.725Z,100.00
2023-02-25T14:35:37.929Z,100.00
2023-02-25T14:38:33.609Z,100.00
2023-02-25T14:41:23.620Z,100.00
2023-02-25T14:43:52.659Z,100.00
2023-02-25T14:46:33.206Z,100.00
2023-02-25T14:49:17.927Z,100.00
2023-02-25T14:52:03.583Z,100.00
2023-02-25T14:54:54.967Z,100.00
2023-02-25T14:58:07.342Z,100.00
2023-02-25T15:00:33.999Z,100.00
2023-02-25T15:03:17.440Z,100.00
2023-02-25T15:05:54.221Z,100.00
2023-02-25T15:08:52.636Z,100.00
2023-02-25T15:11:42.722Z,100.00
2023-02-25T15:14:12.246Z,100.00
2023-02-25T15:16:51.122Z,100.00
2023-02-25T15:19:29.906Z,100.00
2023-02-25T15:22:25.266Z,100.00
2023-02-25T15:24:54.651Z,100.00
2023-02-25T15:27:56.691Z,100.00
2023-02-25T15:30:25.162Z,100.00
2023-02-25T15:32:53.944Z,100.00
2023-02-25T15:35:35.254Z,100.00
2023-02-25T15:38:06.878Z,100.00
2023-02-25T15:40:33.760Z,100.00
2023-02-25T15:43:39.821Z,100.00
2023-02-25T15:46:06.370Z,100.00
2023-02-25T15:48:35.179Z,100.00
2023-02-25T15:51:03.353Z,100.00
2023-02-25T15:53:36.822Z,100.00
2023-02-25T15:56:03.305Z,100.00
2023-02-25T15:58:30.295Z,100.00
2023-02-25T16:01:06.471Z,100.00
2023-02-25T16:03:35.957Z,100.00
2023-02-25T16:06:07.062Z,100.00
2023-02-25T16:09:01.504Z,100.00
2023-02-25T16:11:35.753Z,100.00
2023-02-25T16:14:17.550Z,100.00
2023-02-25T16:16:52.740Z,100.00
2023-02-25T16:19:21.528Z,100.00
2023-02-25T16:22:09.327Z,100.00
2023-02-25T16:24:37.134Z,100.00
2023-02-25T16:27:25.842Z,100.00
2023-02-25T16:30:23.660Z,100.00
2023-02-25T16:33:09.222Z,100.00
2023-02-25T16:36:06.852Z,100.00
2023-02-25T16:38:56.343Z,100.00
2023-02-25T16:41:30.352Z,100.00
2023-02-25T16:44:03.418Z,100.00
2023-02-25T16:46:35.140Z,100.00
2023-02-25T16:49:03.744Z,100.00
2023-02-25T16:51:33.283Z,100.00
2023-02-25T16:54:06.245Z,100.00
2023-02-25T16:56:33.091Z,100.00
2023-02-25T16:59:14.909Z,100.00
2023-02-25T17:01:50.308Z,100.00
2023-02-25T17:04:36.436Z,100.00
2023-02-25T17:07:07.587Z,100.00
2023-02-25T17:09:34.765Z,100.00
2023-02-25T17:12:03.127Z,100.00
2023-02-25T17:14:30.915Z,100.00
2023-02-25T17:16:57.743Z,100.00
2023-02-25T17:19:24.907Z,100.00
2023-02-25T17:21:55.513Z,100.00
2023-02-25T17:24:26.998Z,100.00
2023-02-25T17:26:54.022Z,100.00
2023-02-25T17:29:21.174Z,100.00
2023-02-25T17:31:53.561Z,100.00
2023-02-25T17:34:28.054Z,100.00
2023-02-25T17:36:56.087Z,100.00
2023-02-25T17:39:22.748Z,100.00
2023-02-25T17:41:49.701Z,100.00
2023-02-25T17:44:44.667Z,100.00
2023-02-25T17:47:18.172Z,100.00
2023-02-25T17:49:44.826Z,100.00
2023-02-25T17:52:23.600Z,100.00
2023-02-25T17:55:04.266Z,100.00
2023-02-25T17:57:32.378Z,100.00
2023-02-25T18:00:27.019Z,100.00
2023-02-25T18:03:19.643Z,100.00
2023-02-25T18:05:54.524Z,100.00
2023-02-25T18:08:25.305Z,100.00
2023-02-25T18:11:02.280Z,100.00
2023-02-25T18:13:35.252Z,100.00
2023-02-25T18:16:41.187Z,100.00
2023-02-25T18:19:25.208Z,100.00
2023-02-25T18:21:52.811Z,100.00
2023-02-25T18:24:33.190Z,100.00
2023-02-25T18:27:30.652Z,100.00
2023-02-25T18:30:19.456Z,100.00
2023-02-25T18:32:46.936Z,100.00
2023-02-25T18:35:14.242Z,100.00
2023-02-25T18:37:41.588Z,100.00
2023-02-25T18:40:15.868Z,100.00
2023-02-25T18:42:42.642Z,100.00
2023-02-25T18:45:17.011Z,100.00
2023-02-25T18:47:44.019Z,100.00
2023-02-25T18:50:11.409Z,100.00
2023-02-25T18:52:38.259Z,100.00
2023-02-25T18:55:06.433Z,100.00
2023-02-25T18:57:33.051Z,100.00
2023-02-25T18:59:59.537Z,100.00
2023-02-25T19:02:35.250Z,100.00
2023-02-25T19:05:02.920Z,100.00
2023-02-25T19:07:31.816Z,100.00
2023-02-25T19:09:58.835Z,100.00
2023-02-25T19:12:27.398Z,100.00
2023-02-25T19:15:00.271Z,100.00
2023-02-25T19:17:28.702Z,100.00
2023-02-25T19:19:56.150Z,100.00
2023-02-25T19:22:23.061Z,100.00
2023-02-25T19:24:50.698Z,100.00
2023-02-25T19:27:28.351Z,100.00
2023-02-25T19:29:57.868Z,100.00
2023-02-25T19:32:25.502Z,100.00
2023-02-25T19:34:52.386Z,100.00
2023-02-25T19:37:20.715Z,100.00
2023-02-25T19:39:47.197Z,100.00
2023-02-25T19:42:13.919Z,100.00
2023-02-25T19:44:40.610Z,100.00
2023-02-25T19:47:08.025Z,100.00
2023-02-25T19:49:34.684Z,100.00
2023-02-25T19:52:01.558Z,100.00
2023-02-25T19:54:28.011Z,100.00
2023-02-25T19:56:54.909Z,100.00
2023-02-25T19:59:21.477Z,100.00
2023-02-25T20:01:48.015Z,100.00
2023-02-25T20:04:14.740Z,100.00
2023-02-25T20:06:41.369Z,100.00
2023-02-25T20:09:09.275Z,100.00
2023-02-25T20:11:35.929Z,100.00
2023-02-25T20:14:03.991Z,100.00
2023-02-25T20:16:31.153Z,100.00
2023-02-25T20:18:58.009Z,100.00
2023-02-25T20:21:26.333Z,100.00
2023-02-25T20:23:53.170Z,100.00
2023-02-25T20:26:23.106Z,100.00
2023-02-25T20:28:52.253Z,100.00
2023-02-25T20:31:19.179Z,100.00
2023-02-25T20:33:48.989Z,100.00
2023-02-25T20:36:30.507Z,100.00
2023-02-25T20:39:16.817Z,100.00
2023-02-25T20:41:44.868Z,100.00
2023-02-25T20:44:12.072Z,100.00
2023-02-25T20:46:39.832Z,100.00
2023-02-25T20:49:08.149Z,100.00
2023-02-25T20:51:34.930Z,100.00
2023-02-25T20:54:04.034Z,100.00
2023-02-25T20:56:32.101Z,100.00
2023-02-25T20:58:59.151Z,100.00
2023-02-25T21:01:25.850Z,100.00
2023-02-25T21:03:52.867Z,100.00
2023-02-25T21:06:21.792Z,100.00
2023-02-25T21:08:48.820Z,100.00
2023-02-25T21:11:15.620Z,100.00
2023-02-25T21:13:42.215Z,100.00
2023-02-25T21:16:09.155Z,100.00
2023-02-25T21:18:35.894Z,100.00
2023-02-25T21:21:06.065Z,100.00
2023-02-25T21:23:32.872Z,100.00
2023-02-25T21:26:00.348Z,100.00
2023-02-25T21:28:28.173Z,100.00
2023-02-25T21:31:21.295Z,100.00
2023-02-25T21:33:47.849Z,100.00
2023-02-25T21:36:14.602Z,100.00
2023-02-25T21:38:41.498Z,100.00
2023-02-25T21:41:13.379Z,100.00
2023-02-25T21:43:40.756Z,100.00
2023-02-25T21:46:11.521Z,100.00
2023-02-25T21:48:39.224Z,100.00
2023-02-25T21:51:06.539Z,100.00
2023-02-25T21:53:33.831Z,100.00
2023-02-25T21:56:09.163Z,100.00
2023-02-25T21:58:35.936Z,100.00
2023-02-25T22:01:16.111Z,100.00
2023-02-25T22:03:43.560Z,100.00
2023-02-25T22:06:10.096Z,100.00
2023-02-25T22:08:39.455Z,100.00
2023-02-25T22:11:11.614Z,100.00
2023-02-25T22:13:38.237Z,100.00
2023-02-25T22:16:04.969Z,100.00
2023-02-25T22:18:31.677Z,100.00
2023-02-25T22:21:16.276Z,100.00
2023-02-25T22:23:43.560Z,100.00
2023-02-25T22:26:15.654Z,100.00
2023-02-25T22:28:43.339Z,100.00
2023-02-25T22:31:12.573Z,100.00
2023-02-25T22:33:39.983Z,100.00
2023-02-25T22:36:07.438Z,100.00
2023-02-25T22:38:38.857Z,100.00
2023-02-25T22:41:10.247Z,100.00
2023-02-25T22:43:36.961Z,100.00
2023-02-25T22:46:08.850Z,100.00
2023-02-25T22:48:36.867Z,100.00
2023-02-25T22:51:04.441Z,100.00
2023-02-25T22:53:31.094Z,100.00
2023-02-25T22:56:04.746Z,100.00
2023-02-25T22:58:31.562Z,100.00
2023-02-25T23:00:58.245Z,100.00
2023-02-25T23:03:25.037Z,100.00
2023-02-25T23:05:54.590Z,100.00
2023-02-25T23:08:21.800Z,100.00
2023-02-25T23:10:48.366Z,100.00
2023-02-25T23:13:15.015Z,100.00
2023-02-25T23:15:42.178Z,100.00
2023-02-25T23:18:09.642Z,100.00
2023-02-25T23:20:38.414Z,100.00
2023-02-25T23:23:06.375Z,100.00
2023-02-25T23:25:35.244Z,100.00
2023-02-25T23:28:02.087Z,100.00
2023-02-25T23:30:28.828Z,100.00
2023-02-25T23:32:57.390Z,100.00
2023-02-25T23:35:24.426Z,100.00
2023-02-25T23:37:51.196Z,100.00
2023-02-25T23:40:17.853Z,100.00
2023-02-25T23:42:45.011Z,100.00
2023-02-25T23:45:13.028Z,100.00
2023-02-25T23:47:42.651Z,100.00
2023-02-25T23:50:15.070Z,100.00
2023-02-25T23:52:43.430Z,100.00
2023-02-25T23:55:11.568Z,100.00
2023-02-25T23:57:38.608Z,100.00
